sensor_id;sensor_type;location;lat;lon;timestamp;P1;durP1;ratioP1;P2;durP2;ratioP2
12048;SDS011;6085;49.452;8.502;2023-03-16T00:00:07;8.02;;;5.72;;
12048;SDS011;6085;49.452;8.502;2023-03-16T00:04:14;9.45;;;6.57;;
12048;SDS011;6085;49.452;8.502;2023-03-16T00:08:16;9.73;;;6.18;;
12048;SDS011;6085;49.452;8.502;2023-03-16T00:12:19;7.50;;;5.85;;
12048;SDS011;6085;49.452;8.502;2023-03-16T00:16:21;7.47;;;5.82;;
12048;SDS011;6085;49.452;8.502;2023-03-16T00:20:25;7.20;;;5.53;;
12048;SDS011;6085;49.452;8.502;2023-03-16T00:24:27;8.98;;;6.18;;
12048;SDS011;6085;49.452;8.502;2023-03-16T00:28:29;7.60;;;6.25;;
12048;SDS011;6085;49.452;8.502;2023-03-16T00:32:34;8.10;;;6.03;;
12048;SDS011;6085;49.452;8.502;2023-03-16T00:36:39;9.18;;;6.25;;
12048;SDS011;6085;49.452;8.502;2023-03-16T00:40:41;7.70;;;6.05;;
12048;SDS011;6085;49.452;8.502;2023-03-16T00:44:43;7.00;;;5.70;;
12048;SDS011;6085;49.452;8.502;2023-03-16T00:48:46;6.40;;;5.70;;
12048;SDS011;6085;49.452;8.502;2023-03-16T00:52:49;7.43;;;6.13;;
12048;SDS011;6085;49.452;8.502;2023-03-16T00:56:52;8.38;;;6.53;;
12048;SDS011;6085;49.452;8.502;2023-03-16T01:00:54;9.02;;;7.00;;
12048;SDS011;6085;49.452;8.502;2023-03-16T01:04:58;7.80;;;6.72;;
12048;SDS011;6085;49.452;8.502;2023-03-16T01:09:02;7.32;;;5.95;;
12048;SDS011;6085;49.452;8.502;2023-03-16T01:13:05;8.52;;;6.40;;
12048;SDS011;6085;49.452;8.502;2023-03-16T01:17:07;11.35;;;7.22;;
12048;SDS011;6085;49.452;8.502;2023-03-16T01:21:10;8.88;;;6.22;;
12048;SDS011;6085;49.452;8.502;2023-03-16T01:25:14;9.40;;;6.80;;
12048;SDS011;6085;49.452;8.502;2023-03-16T01:29:17;9.20;;;6.68;;
12048;SDS011;6085;49.452;8.502;2023-03-16T01:33:19;9.13;;;6.18;;
12048;SDS011;6085;49.452;8.502;2023-03-16T01:37:21;10.45;;;6.15;;
12048;SDS011;6085;49.452;8.502;2023-03-16T01:41:25;9.30;;;6.55;;
12048;SDS011;6085;49.452;8.502;2023-03-16T01:50:09;9.30;;;6.32;;
12048;SDS011;6085;49.452;8.502;2023-03-16T01:54:13;10.05;;;7.40;;
12048;SDS011;6085;49.452;8.502;2023-03-16T01:58:22;10.13;;;6.60;;
12048;SDS011;6085;49.452;8.502;2023-03-16T02:02:26;9.10;;;7.43;;
12048;SDS011;6085;49.452;8.502;2023-03-16T02:06:31;9.65;;;6.78;;
12048;SDS011;6085;49.452;8.502;2023-03-16T02:10:34;8.57;;;6.47;;
12048;SDS011;6085;49.452;8.502;2023-03-16T02:14:38;11.73;;;6.85;;
12048;SDS011;6085;49.452;8.502;2023-03-16T02:18:40;12.02;;;7.13;;
12048;SDS011;6085;49.452;8.502;2023-03-16T02:22:43;10.38;;;6.80;;
12048;SDS011;6085;49.452;8.502;2023-03-16T02:26:49;10.88;;;7.82;;
12048;SDS011;6085;49.452;8.502;2023-03-16T02:30:56;9.23;;;6.75;;
12048;SDS011;6085;49.452;8.502;2023-03-16T02:34:58;10.63;;;7.22;;
12048;SDS011;6085;49.452;8.502;2023-03-16T02:39:02;9.13;;;7.20;;
12048;SDS011;6085;49.452;8.502;2023-03-16T02:43:05;10.43;;;7.20;;
12048;SDS011;6085;49.452;8.502;2023-03-16T02:47:12;9.40;;;7.30;;
12048;SDS011;6085;49.452;8.502;2023-03-16T02:51:20;10.10;;;7.53;;
12048;SDS011;6085;49.452;8.502;2023-03-16T02:55:22;11.60;;;8.05;;
12048;SDS011;6085;49.452;8.502;2023-03-16T02:59:24;12.75;;;7.95;;
12048;SDS011;6085;49.452;8.502;2023-03-16T03:03:28;9.52;;;7.55;;
12048;SDS011;6085;49.452;8.502;2023-03-16T03:07:33;10.68;;;7.55;;
12048;SDS011;6085;49.452;8.502;2023-03-16T03:11:35;11.05;;;7.78;;
12048;SDS011;6085;49.452;8.502;2023-03-16T03:15:37;8.85;;;7.40;;
12048;SDS011;6085;49.452;8.502;2023-03-16T03:19:41;10.93;;;7.55;;
12048;SDS011;6085;49.452;8.502;2023-03-16T03:23:43;11.30;;;7.70;;
12048;SDS011;6085;49.452;8.502;2023-03-16T03:27:46;12.63;;;8.15;;
12048;SDS011;6085;49.452;8.502;2023-03-16T03:31:49;12.45;;;8.25;;
12048;SDS011;6085;49.452;8.502;2023-03-16T03:35:56;11.45;;;8.20;;
12048;SDS011;6085;49.452;8.502;2023-03-16T03:39:58;12.93;;;8.93;;
12048;SDS011;6085;49.452;8.502;2023-03-16T03:44:03;9.65;;;7.53;;
12048;SDS011;6085;49.452;8.502;2023-03-16T03:48:05;13.18;;;9.07;;
12048;SDS011;6085;49.452;8.502;2023-03-16T03:52:09;11.57;;;8.30;;
12048;SDS011;6085;49.452;8.502;2023-03-16T03:56:11;11.77;;;8.20;;
12048;SDS011;6085;49.452;8.502;2023-03-16T04:00:13;12.25;;;8.50;;
12048;SDS011;6085;49.452;8.502;2023-03-16T04:04:19;12.63;;;7.65;;
12048;SDS011;6085;49.452;8.502;2023-03-16T04:08:23;12.68;;;8.20;;
12048;SDS011;6085;49.452;8.502;2023-03-16T04:12:25;14.25;;;9.70;;
12048;SDS011;6085;49.452;8.502;2023-03-16T04:16:27;12.50;;;8.93;;
12048;SDS011;6085;49.452;8.502;2023-03-16T04:20:28;13.48;;;9.55;;
12048;SDS011;6085;49.452;8.502;2023-03-16T04:24:32;12.88;;;9.30;;
12048;SDS011;6085;49.452;8.502;2023-03-16T04:28:34;13.82;;;9.95;;
12048;SDS011;6085;49.452;8.502;2023-03-16T04:32:37;13.30;;;9.27;;
12048;SDS011;6085;49.452;8.502;2023-03-16T04:36:39;15.38;;;10.32;;
12048;SDS011;6085;49.452;8.502;2023-03-16T04:40:43;14.35;;;9.98;;
12048;SDS011;6085;49.452;8.502;2023-03-16T04:44:45;13.88;;;9.52;;
12048;SDS011;6085;49.452;8.502;2023-03-16T04:48:47;13.93;;;10.10;;
12048;SDS011;6085;49.452;8.502;2023-03-16T04:52:49;15.40;;;11.30;;
12048;SDS011;6085;49.452;8.502;2023-03-16T04:56:53;16.33;;;11.45;;
12048;SDS011;6085;49.452;8.502;2023-03-16T05:00:55;16.70;;;10.60;;
12048;SDS011;6085;49.452;8.502;2023-03-16T05:04:56;15.15;;;10.27;;
12048;SDS011;6085;49.452;8.502;2023-03-16T05:08:58;15.35;;;10.70;;
12048;SDS011;6085;49.452;8.502;2023-03-16T05:13:02;14.90;;;10.57;;
12048;SDS011;6085;49.452;8.502;2023-03-16T05:17:05;18.25;;;11.23;;
12048;SDS011;6085;49.452;8.502;2023-03-16T05:21:07;18.27;;;10.98;;
12048;SDS011;6085;49.452;8.502;2023-03-16T05:25:10;17.75;;;11.57;;
12048;SDS011;6085;49.452;8.502;2023-03-16T05:29:15;18.73;;;11.38;;
12048;SDS011;6085;49.452;8.502;2023-03-16T05:33:17;16.92;;;11.45;;
12048;SDS011;6085;49.452;8.502;2023-03-16T05:37:20;18.10;;;11.80;;
12048;SDS011;6085;49.452;8.502;2023-03-16T05:41:23;18.70;;;12.02;;
12048;SDS011;6085;49.452;8.502;2023-03-16T05:45:26;17.48;;;11.90;;
12048;SDS011;6085;49.452;8.502;2023-03-16T05:49:29;21.85;;;13.43;;
12048;SDS011;6085;49.452;8.502;2023-03-16T05:53:31;23.08;;;14.30;;
12048;SDS011;6085;49.452;8.502;2023-03-16T05:57:34;20.48;;;13.13;;
12048;SDS011;6085;49.452;8.502;2023-03-16T06:01:38;21.25;;;13.32;;
12048;SDS011;6085;49.452;8.502;2023-03-16T06:05:40;24.85;;;13.30;;
12048;SDS011;6085;49.452;8.502;2023-03-16T06:09:42;22.15;;;14.20;;
12048;SDS011;6085;49.452;8.502;2023-03-16T06:13:43;23.70;;;14.40;;
12048;SDS011;6085;49.452;8.502;2023-03-16T06:17:47;21.02;;;14.05;;
12048;SDS011;6085;49.452;8.502;2023-03-16T06:21:49;24.10;;;15.18;;
12048;SDS011;6085;49.452;8.502;2023-03-16T06:25:51;22.13;;;15.05;;
12048;SDS011;6085;49.452;8.502;2023-03-16T06:29:54;25.05;;;16.52;;
12048;SDS011;6085;49.452;8.502;2023-03-16T06:33:58;22.65;;;15.85;;
12048;SDS011;6085;49.452;8.502;2023-03-16T06:38:00;23.23;;;16.00;;
12048;SDS011;6085;49.452;8.502;2023-03-16T06:42:02;23.75;;;15.85;;
12048;SDS011;6085;49.452;8.502;2023-03-16T06:46:04;26.55;;;16.42;;
12048;SDS011;6085;49.452;8.502;2023-03-16T06:50:10;27.88;;;18.25;;
12048;SDS011;6085;49.452;8.502;2023-03-16T06:54:13;32.90;;;20.65;;
12048;SDS011;6085;49.452;8.502;2023-03-16T06:58:15;30.17;;;18.25;;
12048;SDS011;6085;49.452;8.502;2023-03-16T07:02:17;32.03;;;19.23;;
12048;SDS011;6085;49.452;8.502;2023-03-16T07:06:20;30.33;;;17.42;;
12048;SDS011;6085;49.452;8.502;2023-03-16T07:10:22;25.90;;;16.75;;
12048;SDS011;6085;49.452;8.502;2023-03-16T07:14:24;24.75;;;16.30;;
12048;SDS011;6085;49.452;8.502;2023-03-16T07:18:26;24.80;;;15.27;;
12048;SDS011;6085;49.452;8.502;2023-03-16T07:22:30;20.83;;;14.88;;
12048;SDS011;6085;49.452;8.502;2023-03-16T07:26:33;20.88;;;14.02;;
12048;SDS011;6085;49.452;8.502;2023-03-16T07:30:36;17.27;;;12.80;;
12048;SDS011;6085;49.452;8.502;2023-03-16T07:34:38;15.38;;;12.48;;
12048;SDS011;6085;49.452;8.502;2023-03-16T07:38:42;15.13;;;11.65;;
12048;SDS011;6085;49.452;8.502;2023-03-16T07:42:44;13.98;;;10.02;;
12048;SDS011;6085;49.452;8.502;2023-03-16T07:46:46;12.20;;;8.65;;
12048;SDS011;6085;49.452;8.502;2023-03-16T07:50:48;9.75;;;7.50;;
12048;SDS011;6085;49.452;8.502;2023-03-16T07:54:52;8.35;;;7.05;;
12048;SDS011;6085;49.452;8.502;2023-03-16T07:58:54;7.70;;;6.90;;
12048;SDS011;6085;49.452;8.502;2023-03-16T08:02:56;9.57;;;6.72;;
12048;SDS011;6085;49.452;8.502;2023-03-16T08:06:58;6.15;;;5.55;;
12048;SDS011;6085;49.452;8.502;2023-03-16T08:11:02;7.45;;;5.47;;
12048;SDS011;6085;49.452;8.502;2023-03-16T08:15:05;5.50;;;5.00;;
12048;SDS011;6085;49.452;8.502;2023-03-16T08:19:09;8.00;;;5.07;;
12048;SDS011;6085;49.452;8.502;2023-03-16T08:23:12;5.47;;;4.68;;
12048;SDS011;6085;49.452;8.502;2023-03-16T08:27:16;4.82;;;4.43;;
12048;SDS011;6085;49.452;8.502;2023-03-16T08:31:19;4.93;;;4.53;;
12048;SDS011;6085;49.452;8.502;2023-03-16T08:35:22;5.32;;;4.82;;
12048;SDS011;6085;49.452;8.502;2023-03-16T08:39:25;4.85;;;4.45;;
12048;SDS011;6085;49.452;8.502;2023-03-16T08:43:29;4.78;;;4.38;;
12048;SDS011;6085;49.452;8.502;2023-03-16T08:47:31;4.32;;;3.92;;
12048;SDS011;6085;49.452;8.502;2023-03-16T08:51:33;5.10;;;4.60;;
12048;SDS011;6085;49.452;8.502;2023-03-16T08:55:36;5.35;;;4.45;;
12048;SDS011;6085;49.452;8.502;2023-03-16T08:59:41;5.50;;;4.90;;
12048;SDS011;6085;49.452;8.502;2023-03-16T09:03:44;4.78;;;4.38;;
12048;SDS011;6085;49.452;8.502;2023-03-16T09:07:46;4.68;;;4.20;;
12048;SDS011;6085;49.452;8.502;2023-03-16T09:11:48;5.20;;;4.70;;
12048;SDS011;6085;49.452;8.502;2023-03-16T09:15:52;4.53;;;4.22;;
12048;SDS011;6085;49.452;8.502;2023-03-16T09:19:55;5.88;;;4.82;;
12048;SDS011;6085;49.452;8.502;2023-03-16T09:23:57;4.57;;;4.18;;
12048;SDS011;6085;49.452;8.502;2023-03-16T09:27:59;5.68;;;4.32;;
12048;SDS011;6085;49.452;8.502;2023-03-16T09:32:02;4.75;;;4.28;;
12048;SDS011;6085;49.452;8.502;2023-03-16T09:36:05;4.20;;;3.80;;
12048;SDS011;6085;49.452;8.502;2023-03-16T09:40:13;4.70;;;4.30;;
12048;SDS011;6085;49.452;8.502;2023-03-16T09:44:26;5.47;;;4.10;;
12048;SDS011;6085;49.452;8.502;2023-03-16T09:48:38;5.28;;;4.60;;
12048;SDS011;6085;49.452;8.502;2023-03-16T09:52:42;4.53;;;4.10;;
12048;SDS011;6085;49.452;8.502;2023-03-16T09:56:48;4.15;;;3.83;;
12048;SDS011;6085;49.452;8.502;2023-03-16T10:00:54;4.90;;;4.40;;
12048;SDS011;6085;49.452;8.502;2023-03-16T10:05:05;4.78;;;4.15;;
12048;SDS011;6085;49.452;8.502;2023-03-16T10:09:14;4.85;;;4.22;;
12048;SDS011;6085;49.452;8.502;2023-03-16T10:13:27;4.20;;;3.80;;
12048;SDS011;6085;49.452;8.502;2023-03-16T10:17:37;4.47;;;4.07;;
12048;SDS011;6085;49.452;8.502;2023-03-16T10:21:44;4.22;;;3.83;;
12048;SDS011;6085;49.452;8.502;2023-03-16T10:25:49;4.60;;;4.20;;
12048;SDS011;6085;49.452;8.502;2023-03-16T10:29:52;4.13;;;3.63;;
12048;SDS011;6085;49.452;8.502;2023-03-16T10:33:57;4.05;;;3.75;;
12048;SDS011;6085;49.452;8.502;2023-03-16T10:38:07;4.30;;;3.90;;
12048;SDS011;6085;49.452;8.502;2023-03-16T10:42:25;4.05;;;3.53;;
12048;SDS011;6085;49.452;8.502;2023-03-16T10:46:34;3.83;;;3.47;;
12048;SDS011;6085;49.452;8.502;2023-03-16T10:50:38;3.80;;;3.50;;
12048;SDS011;6085;49.452;8.502;2023-03-16T10:54:46;4.13;;;3.83;;
12048;SDS011;6085;49.452;8.502;2023-03-16T10:58:50;3.88;;;3.58;;
12048;SDS011;6085;49.452;8.502;2023-03-16T11:02:52;4.88;;;4.10;;
12048;SDS011;6085;49.452;8.502;2023-03-16T11:06:56;4.45;;;3.85;;
12048;SDS011;6085;49.452;8.502;2023-03-16T11:11:02;4.03;;;3.63;;
12048;SDS011;6085;49.452;8.502;2023-03-16T11:15:11;5.22;;;4.28;;
12048;SDS011;6085;49.452;8.502;2023-03-16T11:19:16;4.28;;;3.92;;
12048;SDS011;6085;49.452;8.502;2023-03-16T11:23:23;3.90;;;3.50;;
12048;SDS011;6085;49.452;8.502;2023-03-16T11:27:34;3.95;;;3.63;;
12048;SDS011;6085;49.452;8.502;2023-03-16T11:31:44;4.72;;;3.50;;
12048;SDS011;6085;49.452;8.502;2023-03-16T11:35:50;5.07;;;4.20;;
12048;SDS011;6085;49.452;8.502;2023-03-16T11:39:59;4.20;;;3.80;;
12048;SDS011;6085;49.452;8.502;2023-03-16T11:44:16;4.07;;;3.78;;
12048;SDS011;6085;49.452;8.502;2023-03-16T11:48:28;4.82;;;4.43;;
12048;SDS011;6085;49.452;8.502;2023-03-16T11:52:40;4.22;;;3.92;;
12048;SDS011;6085;49.452;8.502;2023-03-16T11:56:49;5.53;;;4.18;;
12048;SDS011;6085;49.452;8.502;2023-03-16T12:01:00;4.22;;;3.83;;
12048;SDS011;6085;49.452;8.502;2023-03-16T12:05:18;4.13;;;3.83;;
12048;SDS011;6085;49.452;8.502;2023-03-16T12:13:59;4.22;;;3.72;;
12048;SDS011;6085;49.452;8.502;2023-03-16T12:18:15;3.95;;;3.63;;
12048;SDS011;6085;49.452;8.502;2023-03-16T12:22:20;4.43;;;4.03;;
12048;SDS011;6085;49.452;8.502;2023-03-16T12:26:29;3.90;;;3.50;;
12048;SDS011;6085;49.452;8.502;2023-03-16T12:30:35;4.53;;;3.80;;
12048;SDS011;6085;49.452;8.502;2023-03-16T12:34:47;4.03;;;3.63;;
12048;SDS011;6085;49.452;8.502;2023-03-16T12:38:54;4.45;;;3.70;;
12048;SDS011;6085;49.452;8.502;2023-03-16T12:43:20;4.32;;;3.92;;
12048;SDS011;6085;49.452;8.502;2023-03-16T12:47:32;3.97;;;3.67;;
12048;SDS011;6085;49.452;8.502;2023-03-16T12:51:45;4.22;;;3.83;;
12048;SDS011;6085;49.452;8.502;2023-03-16T12:55:48;3.90;;;3.60;;
12048;SDS011;6085;49.452;8.502;2023-03-16T12:59:54;4.00;;;3.70;;
12048;SDS011;6085;49.452;8.502;2023-03-16T13:04:00;3.78;;;3.47;;
12048;SDS011;6085;49.452;8.502;2023-03-16T13:08:06;3.97;;;3.63;;
12048;SDS011;6085;49.452;8.502;2023-03-16T13:12:20;4.95;;;4.15;;
12048;SDS011;6085;49.452;8.502;2023-03-16T13:16:25;4.63;;;4.15;;
12048;SDS011;6085;49.452;8.502;2023-03-16T13:20:29;3.38;;;3.08;;
12048;SDS011;6085;49.452;8.502;2023-03-16T13:24:37;4.22;;;3.58;;
12048;SDS011;6085;49.452;8.502;2023-03-16T13:28:40;3.88;;;3.53;;
12048;SDS011;6085;49.452;8.502;2023-03-16T13:32:44;4.65;;;3.10;;
12048;SDS011;6085;49.452;8.502;2023-03-16T13:36:47;4.07;;;3.30;;
12048;SDS011;6085;49.452;8.502;2023-03-16T13:40:55;3.20;;;2.90;;
12048;SDS011;6085;49.452;8.502;2023-03-16T13:45:04;3.40;;;3.10;;
12048;SDS011;6085;49.452;8.502;2023-03-16T13:49:18;3.22;;;2.78;;
12048;SDS011;6085;49.452;8.502;2023-03-16T13:53:22;2.55;;;2.40;;
12048;SDS011;6085;49.452;8.502;2023-03-16T13:57:29;4.13;;;2.72;;
12048;SDS011;6085;49.452;8.502;2023-03-16T14:01:36;3.58;;;2.97;;
12048;SDS011;6085;49.452;8.502;2023-03-16T14:05:38;3.28;;;2.97;;
12048;SDS011;6085;49.452;8.502;2023-03-16T14:09:40;2.83;;;2.35;;
12048;SDS011;6085;49.452;8.502;2023-03-16T14:13:50;3.00;;;2.80;;
12048;SDS011;6085;49.452;8.502;2023-03-16T14:17:53;3.15;;;2.85;;
12048;SDS011;6085;49.452;8.502;2023-03-16T14:22:14;3.45;;;2.55;;
12048;SDS011;6085;49.452;8.502;2023-03-16T14:26:18;2.90;;;2.70;;
12048;SDS011;6085;49.452;8.502;2023-03-16T14:30:22;2.90;;;2.58;;
12048;SDS011;6085;49.452;8.502;2023-03-16T14:34:27;4.00;;;2.50;;
12048;SDS011;6085;49.452;8.502;2023-03-16T14:38:31;2.95;;;2.65;;
12048;SDS011;6085;49.452;8.502;2023-03-16T14:42:35;2.60;;;2.40;;
12048;SDS011;6085;49.452;8.502;2023-03-16T14:46:41;3.05;;;2.25;;
12048;SDS011;6085;49.452;8.502;2023-03-16T14:50:43;3.03;;;2.20;;
12048;SDS011;6085;49.452;8.502;2023-03-16T14:54:46;2.30;;;2.10;;
12048;SDS011;6085;49.452;8.502;2023-03-16T14:58:48;2.28;;;2.08;;
12048;SDS011;6085;49.452;8.502;2023-03-16T15:02:57;3.22;;;2.15;;
12048;SDS011;6085;49.452;8.502;2023-03-16T15:07:04;1.80;;;1.70;;
12048;SDS011;6085;49.452;8.502;2023-03-16T15:11:19;2.22;;;1.67;;
12048;SDS011;6085;49.452;8.502;2023-03-16T15:15:23;3.85;;;1.80;;
12048;SDS011;6085;49.452;8.502;2023-03-16T15:19:28;3.95;;;2.17;;
12048;SDS011;6085;49.452;8.502;2023-03-16T15:23:30;2.78;;;1.55;;
12048;SDS011;6085;49.452;8.502;2023-03-16T15:27:33;1.50;;;1.40;;
12048;SDS011;6085;49.452;8.502;2023-03-16T15:31:36;2.85;;;1.90;;
12048;SDS011;6085;49.452;8.502;2023-03-16T15:35:39;1.80;;;1.38;;
12048;SDS011;6085;49.452;8.502;2023-03-16T15:39:42;1.70;;;1.50;;
12048;SDS011;6085;49.452;8.502;2023-03-16T15:43:45;2.53;;;1.27;;
12048;SDS011;6085;49.452;8.502;2023-03-16T15:47:47;1.73;;;1.60;;
12048;SDS011;6085;49.452;8.502;2023-03-16T15:51:51;1.38;;;1.27;;
12048;SDS011;6085;49.452;8.502;2023-03-16T15:55:55;2.40;;;1.30;;
12048;SDS011;6085;49.452;8.502;2023-03-16T16:00:02;1.38;;;1.20;;
12048;SDS011;6085;49.452;8.502;2023-03-16T16:04:05;3.03;;;1.35;;
12048;SDS011;6085;49.452;8.502;2023-03-16T16:08:13;1.60;;;1.50;;
12048;SDS011;6085;49.452;8.502;2023-03-16T16:12:16;2.08;;;1.50;;
12048;SDS011;6085;49.452;8.502;2023-03-16T16:16:26;2.53;;;1.50;;
12048;SDS011;6085;49.452;8.502;2023-03-16T16:20:30;2.45;;;1.13;;
12048;SDS011;6085;49.452;8.502;2023-03-16T16:24:34;1.80;;;1.30;;
12048;SDS011;6085;49.452;8.502;2023-03-16T16:28:37;1.60;;;1.50;;
12048;SDS011;6085;49.452;8.502;2023-03-16T16:32:38;1.35;;;1.10;;
12048;SDS011;6085;49.452;8.502;2023-03-16T16:36:41;2.03;;;1.40;;
12048;SDS011;6085;49.452;8.502;2023-03-16T16:40:44;1.90;;;1.70;;
12048;SDS011;6085;49.452;8.502;2023-03-16T16:44:47;2.03;;;1.20;;
12048;SDS011;6085;49.452;8.502;2023-03-16T16:48:49;1.85;;;1.20;;
12048;SDS011;6085;49.452;8.502;2023-03-16T16:52:53;1.60;;;1.50;;
12048;SDS011;6085;49.452;8.502;2023-03-16T16:56:58;3.97;;;1.60;;
12048;SDS011;6085;49.452;8.502;2023-03-16T17:01:00;2.03;;;1.48;;
12048;SDS011;6085;49.452;8.502;2023-03-16T17:05:08;2.25;;;1.30;;
12048;SDS011;6085;49.452;8.502;2023-03-16T17:09:15;1.52;;;1.42;;
12048;SDS011;6085;49.452;8.502;2023-03-16T17:13:24;3.08;;;1.42;;
12048;SDS011;6085;49.452;8.502;2023-03-16T17:17:29;1.92;;;1.42;;
12048;SDS011;6085;49.452;8.502;2023-03-16T17:21:31;1.85;;;1.20;;
12048;SDS011;6085;49.452;8.502;2023-03-16T17:25:33;1.10;;;1.10;;
12048;SDS011;6085;49.452;8.502;2023-03-16T17:29:37;2.10;;;1.88;;
12048;SDS011;6085;49.452;8.502;2023-03-16T17:33:42;1.83;;;1.52;;
12048;SDS011;6085;49.452;8.502;2023-03-16T17:37:44;1.58;;;1.48;;
12048;SDS011;6085;49.452;8.502;2023-03-16T17:41:47;2.95;;;1.55;;
12048;SDS011;6085;49.452;8.502;2023-03-16T17:45:53;2.17;;;1.48;;
12048;SDS011;6085;49.452;8.502;2023-03-16T17:49:55;3.88;;;1.70;;
12048;SDS011;6085;49.452;8.502;2023-03-16T17:53:57;2.97;;;2.00;;
12048;SDS011;6085;49.452;8.502;2023-03-16T17:57:59;1.90;;;1.80;;
12048;SDS011;6085;49.452;8.502;2023-03-16T18:02:04;3.40;;;1.70;;
12048;SDS011;6085;49.452;8.502;2023-03-16T18:06:32;1.83;;;1.73;;
12048;SDS011;6085;49.452;8.502;2023-03-16T18:10:34;1.70;;;1.60;;
12048;SDS011;6085;49.452;8.502;2023-03-16T18:14:37;2.45;;;1.73;;
12048;SDS011;6085;49.452;8.502;2023-03-16T18:18:41;1.60;;;1.50;;
12048;SDS011;6085;49.452;8.502;2023-03-16T18:22:43;2.88;;;1.50;;
12048;SDS011;6085;49.452;8.502;2023-03-16T18:26:47;1.90;;;1.70;;
12048;SDS011;6085;49.452;8.502;2023-03-16T18:30:50;2.58;;;2.05;;
12048;SDS011;6085;49.452;8.502;2023-03-16T18:34:54;2.38;;;2.17;;
12048;SDS011;6085;49.452;8.502;2023-03-16T18:38:58;1.67;;;1.58;;
12048;SDS011;6085;49.452;8.502;2023-03-16T18:43:02;2.20;;;2.00;;
12048;SDS011;6085;49.452;8.502;2023-03-16T18:47:07;2.47;;;2.28;;
12048;SDS011;6085;49.452;8.502;2023-03-16T18:51:19;2.28;;;2.08;;
12048;SDS011;6085;49.452;8.502;2023-03-16T18:55:22;4.72;;;3.50;;
12048;SDS011;6085;49.452;8.502;2023-03-16T18:59:26;3.35;;;2.50;;
12048;SDS011;6085;49.452;8.502;2023-03-16T19:03:29;2.60;;;2.17;;
12048;SDS011;6085;49.452;8.502;2023-03-16T19:07:35;5.53;;;2.38;;
12048;SDS011;6085;49.452;8.502;2023-03-16T19:11:39;3.42;;;2.50;;
12048;SDS011;6085;49.452;8.502;2023-03-16T19:15:43;3.60;;;2.70;;
12048;SDS011;6085;49.452;8.502;2023-03-16T19:19:45;2.30;;;2.10;;
12048;SDS011;6085;49.452;8.502;2023-03-16T19:23:50;2.60;;;2.40;;
12048;SDS011;6085;49.452;8.502;2023-03-16T19:27:55;3.60;;;2.97;;
12048;SDS011;6085;49.452;8.502;2023-03-16T19:31:58;2.58;;;2.35;;
12048;SDS011;6085;49.452;8.502;2023-03-16T19:36:00;4.68;;;2.97;;
12048;SDS011;6085;49.452;8.502;2023-03-16T19:40:09;4.75;;;2.28;;
12048;SDS011;6085;49.452;8.502;2023-03-16T19:44:12;2.35;;;2.13;;
12048;SDS011;6085;49.452;8.502;2023-03-16T19:48:17;3.47;;;2.10;;
12048;SDS011;6085;49.452;8.502;2023-03-16T19:52:21;2.75;;;2.40;;
12048;SDS011;6085;49.452;8.502;2023-03-16T19:56:25;3.30;;;2.40;;
12048;SDS011;6085;49.452;8.502;2023-03-16T20:00:27;3.53;;;2.30;;
12048;SDS011;6085;49.452;8.502;2023-03-16T20:04:30;2.83;;;2.20;;
12048;SDS011;6085;49.452;8.502;2023-03-16T20:08:32;2.67;;;2.45;;
12048;SDS011;6085;49.452;8.502;2023-03-16T20:12:35;4.63;;;2.58;;
12048;SDS011;6085;49.452;8.502;2023-03-16T20:16:41;4.07;;;2.60;;
12048;SDS011;6085;49.452;8.502;2023-03-16T20:20:46;3.08;;;2.78;;
12048;SDS011;6085;49.452;8.502;2023-03-16T20:24:48;3.13;;;2.70;;
12048;SDS011;6085;49.452;8.502;2023-03-16T20:28:52;3.00;;;2.70;;
12048;SDS011;6085;49.452;8.502;2023-03-16T20:32:54;4.10;;;2.63;;
12048;SDS011;6085;49.452;8.502;2023-03-16T20:36:56;4.03;;;3.00;;
12048;SDS011;6085;49.452;8.502;2023-03-16T20:40:59;3.13;;;2.80;;
12048;SDS011;6085;49.452;8.502;2023-03-16T20:45:03;3.20;;;2.85;;
12048;SDS011;6085;49.452;8.502;2023-03-16T20:49:24;3.47;;;2.95;;
12048;SDS011;6085;49.452;8.502;2023-03-16T20:53:30;2.97;;;2.67;;
12048;SDS011;6085;49.452;8.502;2023-03-16T20:57:32;4.10;;;2.80;;
12048;SDS011;6085;49.452;8.502;2023-03-16T21:01:35;3.22;;;2.90;;
12048;SDS011;6085;49.452;8.502;2023-03-16T21:05:41;4.03;;;2.60;;
12048;SDS011;6085;49.452;8.502;2023-03-16T21:09:43;3.63;;;2.60;;
12048;SDS011;6085;49.452;8.502;2023-03-16T21:13:45;2.92;;;2.38;;
12048;SDS011;6085;49.452;8.502;2023-03-16T21:17:51;3.30;;;3.00;;
12048;SDS011;6085;49.452;8.502;2023-03-16T21:21:58;3.25;;;2.70;;
12048;SDS011;6085;49.452;8.502;2023-03-16T21:26:00;3.85;;;2.60;;
12048;SDS011;6085;49.452;8.502;2023-03-16T21:30:04;3.03;;;2.60;;
12048;SDS011;6085;49.452;8.502;2023-03-16T21:34:16;3.20;;;2.90;;
12048;SDS011;6085;49.452;8.502;2023-03-16T21:38:23;2.83;;;2.63;;
12048;SDS011;6085;49.452;8.502;2023-03-16T21:42:26;5.03;;;3.00;;
12048;SDS011;6085;49.452;8.502;2023-03-16T21:46:29;3.15;;;2.50;;
12048;SDS011;6085;49.452;8.502;2023-03-16T21:50:33;3.00;;;2.70;;
12048;SDS011;6085;49.452;8.502;2023-03-16T21:54:37;3.03;;;2.72;;
12048;SDS011;6085;49.452;8.502;2023-03-16T21:58:39;2.78;;;2.58;;
12048;SDS011;6085;49.452;8.502;2023-03-16T22:02:41;3.08;;;2.78;;
12048;SDS011;6085;49.452;8.502;2023-03-16T22:06:44;3.00;;;2.70;;
12048;SDS011;6085;49.452;8.502;2023-03-16T22:10:46;3.35;;;2.47;;
12048;SDS011;6085;49.452;8.502;2023-03-16T22:14:51;2.85;;;2.60;;
12048;SDS011;6085;49.452;8.502;2023-03-16T22:18:53;4.00;;;2.90;;
12048;SDS011;6085;49.452;8.502;2023-03-16T22:22:58;3.08;;;2.65;;
12048;SDS011;6085;49.452;8.502;2023-03-16T22:27:01;3.03;;;2.72;;
12048;SDS011;6085;49.452;8.502;2023-03-16T22:31:03;3.33;;;2.95;;
12048;SDS011;6085;49.452;8.502;2023-03-16T22:35:05;3.58;;;2.50;;
12048;SDS011;6085;49.452;8.502;2023-03-16T22:39:20;2.75;;;2.55;;
12048;SDS011;6085;49.452;8.502;2023-03-16T22:43:25;2.90;;;2.55;;
12048;SDS011;6085;49.452;8.502;2023-03-16T22:47:30;2.65;;;2.45;;
12048;SDS011;6085;49.452;8.502;2023-03-16T22:51:33;3.25;;;2.42;;
12048;SDS011;6085;49.452;8.502;2023-03-16T22:55:39;4.00;;;2.42;;
12048;SDS011;6085;49.452;8.502;2023-03-16T22:59:41;2.63;;;2.42;;
12048;SDS011;6085;49.452;8.502;2023-03-16T23:03:46;4.38;;;2.53;;
12048;SDS011;6085;49.452;8.502;2023-03-16T23:07:49;3.60;;;2.75;;
12048;SDS011;6085;49.452;8.502;2023-03-16T23:11:53;3.47;;;2.90;;
12048;SDS011;6085;49.452;8.502;2023-03-16T23:15:56;4.20;;;2.88;;
12048;SDS011;6085;49.452;8.502;2023-03-16T23:19:58;3.95;;;2.72;;
12048;SDS011;6085;49.452;8.502;2023-03-16T23:24:00;3.50;;;2.72;;
12048;SDS011;6085;49.452;8.502;2023-03-16T23:28:04;2.47;;;2.28;;
12048;SDS011;6085;49.452;8.502;2023-03-16T23:32:08;3.92;;;2.97;;
12048;SDS011;6085;49.452;8.502;2023-03-16T23:36:11;3.13;;;2.83;;
12048;SDS011;6085;49.452;8.502;2023-03-16T23:40:14;2.92;;;2.45;;
12048;SDS011;6085;49.452;8.502;2023-03-16T23:44:19;2.85;;;2.28;;
12048;SDS011;6085;49.452;8.502;2023-03-16T23:48:23;3.10;;;2.80;;
12048;SDS011;6085;49.452;8.502;2023-03-16T23:52:25;3.72;;;3.13;;
12048;SDS011;6085;49.452;8.502;2023-03-16T23:56:27;3.60;;;2.88;;
